createdAt,value
2022-09-15T00:01:20.398Z,92.50
2022-09-15T00:03:48.961Z,92.60
2022-09-15T00:06:17.916Z,92.60
2022-09-15T00:08:46.470Z,92.60
2022-09-15T00:11:17.852Z,92.70
2022-09-15T00:13:48.568Z,92.70
2022-09-15T00:16:17.338Z,92.80
2022-09-15T00:18:46.310Z,92.90
2022-09-15T00:21:17.497Z,92.90
2022-09-15T00:23:45.736Z,93.10
2022-09-15T00:26:15.494Z,93.10
2022-09-15T00:28:43.945Z,93.50
2022-09-15T00:31:19.269Z,93.50
2022-09-15T00:33:48.172Z,93.30
2022-09-15T00:36:16.496Z,93.40
2022-09-15T00:38:45.423Z,93.50
2022-09-15T00:41:17.230Z,93.70
2022-09-15T00:43:53.152Z,93.60
2022-09-15T00:46:25.895Z,93.50
2022-09-15T00:49:15.003Z,93.70
2022-09-15T00:51:52.250Z,93.80
2022-09-15T00:54:29.152Z,93.80
2022-09-15T00:56:58.770Z,93.90
2022-09-15T00:59:28.127Z,94.10
2022-09-15T01:01:59.248Z,94.40
2022-09-15T01:04:27.649Z,94.20
2022-09-15T01:06:59.414Z,94.20
2022-09-15T01:09:28.862Z,94.40
2022-09-15T01:11:57.073Z,94.50
2022-09-15T01:14:25.214Z,94.50
2022-09-15T01:16:56.242Z,94.60
2022-09-15T01:19:39.525Z,94.60
2022-09-15T01:22:25.714Z,94.70
2022-09-15T01:25:12.301Z,94.80
2022-09-15T01:27:43.317Z,94.80
2022-09-15T01:30:24.366Z,95.10
2022-09-15T01:33:05.792Z,95.20
2022-09-15T01:35:55.215Z,95.20
2022-09-15T01:38:41.967Z,95.30
2022-09-15T01:41:15.091Z,95.40
2022-09-15T01:43:52.237Z,95.40
2022-09-15T01:46:21.285Z,95.50
2022-09-15T01:48:49.830Z,96.00
2022-09-15T01:51:18.672Z,95.60
2022-09-15T01:53:46.721Z,95.60
2022-09-15T01:56:14.977Z,95.80
2022-09-15T01:58:42.947Z,95.90
2022-09-15T02:01:14.568Z,96.10
2022-09-15T02:03:44.952Z,96.00
2022-09-15T02:06:22.924Z,96.10
2022-09-15T02:08:58.970Z,96.30
2022-09-15T02:11:28.502Z,96.30
2022-09-15T02:14:10.951Z,96.40
2022-09-15T02:16:41.871Z,96.50
2022-09-15T02:19:15.881Z,96.50
2022-09-15T02:21:46.902Z,96.50
2022-09-15T02:24:19.631Z,96.50
2022-09-15T02:26:50.044Z,96.60
2022-09-15T02:29:21.534Z,96.70
2022-09-15T02:31:51.122Z,96.90
2022-09-15T02:34:45.765Z,96.80
2022-09-15T02:37:14.358Z,96.90
2022-09-15T02:39:49.201Z,96.90
2022-09-15T02:42:27.392Z,97.00
2022-09-15T02:44:55.658Z,97.00
2022-09-15T02:47:23.849Z,97.20
2022-09-15T02:49:52.215Z,97.20
2022-09-15T02:52:20.803Z,97.70
2022-09-15T02:54:49.368Z,97.50
2022-09-15T02:57:17.327Z,97.30
2022-09-15T03:00:03.936Z,97.70
2022-09-15T03:02:32.568Z,97.80
2022-09-15T03:05:00.709Z,97.80
2022-09-15T03:07:28.898Z,97.90
2022-09-15T03:10:02.459Z,97.90
2022-09-15T03:12:32.476Z,98.20
2022-09-15T03:15:00.397Z,98.30
2022-09-15T03:17:28.369Z,98.30
2022-09-15T03:19:56.305Z,98.60
2022-09-15T03:22:25.020Z,98.30
2022-09-15T03:24:55.197Z,98.50
2022-09-15T03:27:23.455Z,98.60
2022-09-15T03:29:51.436Z,98.70
2022-09-15T03:32:22.881Z,98.60
2022-09-15T03:34:57.726Z,98.80
2022-09-15T03:37:26.870Z,98.70
2022-09-15T03:39:55.525Z,98.70
2022-09-15T03:42:23.657Z,98.80
2022-09-15T03:44:51.629Z,98.90
2022-09-15T03:47:19.781Z,99.00
2022-09-15T03:49:50.575Z,98.70
2022-09-15T03:52:18.670Z,99.10
2022-09-15T03:54:48.406Z,99.00
2022-09-15T03:57:16.732Z,99.00
2022-09-15T03:59:44.942Z,99.00
2022-09-15T04:02:13.071Z,99.20
2022-09-15T04:04:41.721Z,99.00
2022-09-15T04:07:11.880Z,99.30
2022-09-15T04:09:39.930Z,99.30
2022-09-15T04:12:08.024Z,99.30
2022-09-15T04:14:35.966Z,99.30
2022-09-15T04:17:06.644Z,99.50
2022-09-15T04:19:34.915Z,99.70
2022-09-15T04:22:05.126Z,99.30
2022-09-15T04:24:37.734Z,99.20
2022-09-15T04:27:05.900Z,99.10
2022-09-15T04:29:36.252Z,99.40
2022-09-15T04:32:04.259Z,99.10
2022-09-15T04:34:32.551Z,99.30
2022-09-15T04:37:00.590Z,99.10
2022-09-15T04:39:28.646Z,99.30
2022-09-15T04:41:57.569Z,99.20
2022-09-15T04:44:25.596Z,98.90
2022-09-15T04:46:53.675Z,98.80
2022-09-15T04:49:23.074Z,98.70
2022-09-15T04:51:54.888Z,99.00
2022-09-15T04:54:22.839Z,98.80
2022-09-15T04:56:50.962Z,98.60
2022-09-15T04:59:19.628Z,98.20
2022-09-15T05:01:48.124Z,98.10
2022-09-15T05:04:16.257Z,98.10
2022-09-15T05:06:44.201Z,98.00
2022-09-15T05:09:13.253Z,97.90
2022-09-15T05:11:41.354Z,97.70
2022-09-15T05:14:10.559Z,97.60
2022-09-15T05:16:38.831Z,97.70
2022-09-15T05:19:09.247Z,97.40
2022-09-15T05:21:37.389Z,97.20
2022-09-15T05:24:05.463Z,96.90
2022-09-15T05:26:33.492Z,96.90
2022-09-15T05:29:01.463Z,96.50
2022-09-15T05:31:34.255Z,96.20
2022-09-15T05:34:04.102Z,96.20
2022-09-15T05:36:32.440Z,96.00
2022-09-15T05:39:02.669Z,95.70
2022-09-15T05:41:33.624Z,95.30
2022-09-15T05:44:01.812Z,95.50
2022-09-15T05:46:31.420Z,95.70
2022-09-15T05:48:59.827Z,95.40
2022-09-15T05:51:30.833Z,95.60
2022-09-15T05:53:58.873Z,95.50
2022-09-15T05:56:29.084Z,94.90
2022-09-15T05:58:57.720Z,94.10
2022-09-15T06:01:26.963Z,93.30
2022-09-15T06:03:56.713Z,93.00
2022-09-15T06:06:25.404Z,92.60
2022-09-15T06:08:58.422Z,91.90
2022-09-15T06:11:28.713Z,91.50
2022-09-15T06:14:03.444Z,91.00
2022-09-15T06:16:32.567Z,90.60
2022-09-15T06:19:01.600Z,89.50
2022-09-15T06:21:30.331Z,88.20
2022-09-15T06:24:04.882Z,86.90
2022-09-15T06:26:33.606Z,84.90
2022-09-15T06:29:02.930Z,83.20
2022-09-15T06:31:34.080Z,81.70
2022-09-15T06:34:04.144Z,80.60
2022-09-15T06:36:32.952Z,79.20
2022-09-15T06:39:00.879Z,78.60
2022-09-15T06:41:42.678Z,77.90
2022-09-15T06:44:23.655Z,77.10
2022-09-15T06:46:54.593Z,76.70
2022-09-15T06:49:22.653Z,76.60
2022-09-15T06:51:50.572Z,76.30
2022-09-15T06:54:18.565Z,75.90
2022-09-15T06:56:49.426Z,75.80
2022-09-15T06:59:20.961Z,75.20
2022-09-15T07:01:53.340Z,75.00
2022-09-15T07:04:22.148Z,73.90
2022-09-15T07:06:50.955Z,73.90
2022-09-15T07:09:21.445Z,72.20
2022-09-15T07:11:51.893Z,71.40
2022-09-15T07:14:19.813Z,70.70
2022-09-15T07:16:47.817Z,69.70
2022-09-15T07:19:18.099Z,68.50
2022-09-15T07:21:46.880Z,67.90
2022-09-15T07:24:17.094Z,67.10
2022-09-15T07:26:45.156Z,66.50
2022-09-15T07:29:13.287Z,65.30
2022-09-15T07:31:44.059Z,65.20
2022-09-15T07:34:12.535Z,64.30
2022-09-15T07:36:40.874Z,63.40
2022-09-15T07:39:14.095Z,62.60
2022-09-15T07:41:45.128Z,62.20
2022-09-15T07:44:16.209Z,61.60
2022-09-15T07:46:45.043Z,60.30
2022-09-15T07:49:13.080Z,60.00
2022-09-15T07:51:43.312Z,60.70
2022-09-15T07:54:13.488Z,60.20
2022-09-15T07:56:44.842Z,59.50
2022-09-15T07:59:12.956Z,58.90
2022-09-15T08:01:43.407Z,58.80
2022-09-15T08:04:13.675Z,57.00
2022-09-15T08:06:41.673Z,56.70
2022-09-15T08:09:15.190Z,56.30
2022-09-15T08:11:45.562Z,55.40
2022-09-15T08:14:13.679Z,54.70
2022-09-15T08:16:45.189Z,54.90
2022-09-15T08:19:16.510Z,54.60
2022-09-15T08:21:44.519Z,53.40
2022-09-15T08:24:16.964Z,52.70
2022-09-15T08:26:47.386Z,52.80
2022-09-15T08:29:15.641Z,51.80
2022-09-15T08:31:45.865Z,49.20
2022-09-15T08:34:14.795Z,51.40
2022-09-15T08:36:43.177Z,50.60
2022-09-15T08:39:11.231Z,48.50
2022-09-15T08:41:43.106Z,50.80
2022-09-15T08:44:24.215Z,49.10
2022-09-15T08:46:58.813Z,48.50
2022-09-15T08:49:52.543Z,50.10
2022-09-15T08:52:30.907Z,49.30
2022-09-15T08:55:00.475Z,48.70
2022-09-15T08:57:30.947Z,48.80
2022-09-15T09:00:01.431Z,48.80
2022-09-15T09:02:35.587Z,49.80
2022-09-15T09:05:23.035Z,47.50
2022-09-15T09:08:06.280Z,48.30
2022-09-15T09:10:42.587Z,48.70
2022-09-15T09:13:15.946Z,49.30
2022-09-15T09:15:53.920Z,47.50
2022-09-15T09:18:35.720Z,48.60
2022-09-15T09:21:14.861Z,46.70
2022-09-15T09:23:49.084Z,48.10
2022-09-15T09:26:18.225Z,48.10
2022-09-15T09:28:47.889Z,47.80
2022-09-15T09:31:20.156Z,46.50
2022-09-15T09:33:57.335Z,46.50
2022-09-15T09:36:26.223Z,45.50
2022-09-15T09:38:59.392Z,44.00
2022-09-15T09:41:39.294Z,43.60
2022-09-15T09:44:10.639Z,43.60
2022-09-15T09:46:40.156Z,42.10
2022-09-15T09:49:17.113Z,39.20
2022-09-15T09:52:02.732Z,41.50
2022-09-15T09:54:32.577Z,40.70
2022-09-15T09:57:20.907Z,39.90
2022-09-15T09:59:50.128Z,41.70
2022-09-15T10:02:22.231Z,40.90
2022-09-15T10:04:52.202Z,42.20
2022-09-15T10:07:26.907Z,40.00
2022-09-15T10:09:56.623Z,35.60
2022-09-15T10:12:34.869Z,34.40
2022-09-15T10:15:06.034Z,39.50
2022-09-15T10:17:37.052Z,37.80
2022-09-15T10:20:06.644Z,38.80
2022-09-15T10:22:34.745Z,40.30
2022-09-15T10:25:39.541Z,32.10
2022-09-15T10:28:14.934Z,36.80
2022-09-15T10:30:58.972Z,39.70
2022-09-15T10:33:35.329Z,36.60
2022-09-15T10:36:06.464Z,36.40
2022-09-15T10:38:44.150Z,39.50
2022-09-15T10:41:14.790Z,39.40
2022-09-15T10:43:48.482Z,41.10
2022-09-15T10:46:39.367Z,41.00
2022-09-15T10:49:07.524Z,40.40
2022-09-15T10:51:43.239Z,41.00
2022-09-15T10:54:28.170Z,40.70
2022-09-15T10:56:59.174Z,40.10
2022-09-15T10:59:34.137Z,38.00
2022-09-15T11:02:13.601Z,40.50
2022-09-15T11:05:05.089Z,39.50
2022-09-15T11:07:49.170Z,37.40
2022-09-15T11:10:20.528Z,38.30
2022-09-15T11:13:23.758Z,37.10
2022-09-15T11:16:08.485Z,37.70
2022-09-15T11:18:39.462Z,32.60
2022-09-15T11:21:25.879Z,31.10
2022-09-15T11:24:29.011Z,33.20
2022-09-15T11:27:08.593Z,33.70
2022-09-15T11:29:52.002Z,33.90
2022-09-15T11:32:23.023Z,35.00
2022-09-15T11:34:57.281Z,33.10
2022-09-15T11:37:27.968Z,31.40
2022-09-15T11:40:00.437Z,36.00
2022-09-15T11:42:48.878Z,32.90
2022-09-15T11:45:20.315Z,32.60
2022-09-15T11:47:51.139Z,29.70
2022-09-15T11:50:30.474Z,29.10
2022-09-15T11:53:01.057Z,30.70
2022-09-15T11:55:33.689Z,32.70
2022-09-15T11:58:21.045Z,31.80
2022-09-15T12:01:07.869Z,31.00
2022-09-15T12:03:39.555Z,35.20
2022-09-15T12:06:15.429Z,34.20
2022-09-15T12:08:47.344Z,35.00
2022-09-15T12:11:23.465Z,37.70
2022-09-15T12:13:52.530Z,38.20
2022-09-15T12:16:21.716Z,39.40
2022-09-15T12:18:53.324Z,42.00
2022-09-15T12:21:40.308Z,42.20
2022-09-15T12:24:14.625Z,44.80
2022-09-15T12:26:43.760Z,43.40
2022-09-15T12:29:26.838Z,44.30
2022-09-15T12:32:13.671Z,45.90
2022-09-15T12:34:55.049Z,45.10
2022-09-15T12:37:24.670Z,46.10
2022-09-15T12:39:54.266Z,46.10
2022-09-15T12:42:23.622Z,45.80
2022-09-15T12:44:54.761Z,46.60
2022-09-15T12:47:35.333Z,45.90
2022-09-15T12:50:07.619Z,42.00
2022-09-15T12:52:43.376Z,41.00
2022-09-15T12:55:17.619Z,41.00
2022-09-15T12:57:50.072Z,42.60
2022-09-15T13:00:21.132Z,44.30
2022-09-15T13:02:50.152Z,45.10
2022-09-15T13:05:39.041Z,45.20
2022-09-15T13:08:33.744Z,46.20
2022-09-15T13:11:21.961Z,47.20
2022-09-15T13:13:50.928Z,48.80
2022-09-15T13:16:22.416Z,47.10
2022-09-15T13:18:54.723Z,46.40
2022-09-15T13:21:24.033Z,47.00
2022-09-15T13:23:53.291Z,48.90
2022-09-15T13:26:24.362Z,48.00
2022-09-15T13:28:55.663Z,46.80
2022-09-15T13:31:24.932Z,47.60
2022-09-15T13:40:01.239Z,48.70
2022-09-15T13:42:32.733Z,49.90
2022-09-15T13:45:04.090Z,50.50
2022-09-15T13:47:31.989Z,49.20
2022-09-15T13:50:15.175Z,49.50
2022-09-15T13:52:53.618Z,46.40
2022-09-15T13:55:25.682Z,47.40
2022-09-15T14:00:55.613Z,50.70
2022-09-15T14:03:37.490Z,49.70
2022-09-15T14:06:13.437Z,50.30
2022-09-15T14:08:45.094Z,51.90
2022-09-15T14:11:21.797Z,53.80
2022-09-15T14:13:50.442Z,53.80
2022-09-15T14:16:24.063Z,55.70
2022-09-15T14:18:53.445Z,55.40
2022-09-15T14:21:21.341Z,55.50
2022-09-15T14:23:50.948Z,55.80
2022-09-15T14:26:23.933Z,55.20
2022-09-15T14:28:53.380Z,54.30
2022-09-15T14:31:32.345Z,52.90
2022-09-15T14:34:01.283Z,53.10
2022-09-15T14:36:31.271Z,53.70
2022-09-15T14:39:14.332Z,54.90
2022-09-15T14:41:42.509Z,55.00
2022-09-15T14:47:19.199Z,55.40
2022-09-15T14:49:47.261Z,56.60
2022-09-15T14:52:26.222Z,57.20
2022-09-15T14:54:56.811Z,56.50
2022-09-15T14:57:31.088Z,57.80
2022-09-15T15:00:08.143Z,58.40
2022-09-15T15:02:48.700Z,57.50
2022-09-15T15:05:19.721Z,57.50
2022-09-15T15:07:48.713Z,58.60
2022-09-15T15:10:36.192Z,58.80
2022-09-15T15:13:11.588Z,59.30
2022-09-15T15:15:39.738Z,58.40
2022-09-15T15:18:29.459Z,57.80
2022-09-15T15:20:59.959Z,58.70
2022-09-15T15:23:29.248Z,58.10
2022-09-15T15:26:17.217Z,58.10
2022-09-15T15:28:45.245Z,57.50
2022-09-15T15:31:13.120Z,57.40
2022-09-15T15:33:53.638Z,57.70
2022-09-15T15:36:25.859Z,57.60
2022-09-15T15:38:58.659Z,58.30
2022-09-15T15:41:28.790Z,58.60
2022-09-15T15:43:58.271Z,59.00
2022-09-15T15:46:45.104Z,58.70
2022-09-15T15:49:16.332Z,59.10
2022-09-15T15:51:45.071Z,59.50
2022-09-15T15:54:13.689Z,59.80
2022-09-15T15:56:41.634Z,59.70
2022-09-15T15:59:12.250Z,60.30
2022-09-15T16:01:40.550Z,59.90
2022-09-15T16:04:09.071Z,60.80
2022-09-15T16:06:37.210Z,61.90
2022-09-15T16:09:06.459Z,61.80
2022-09-15T16:11:35.558Z,62.40
2022-09-15T16:14:04.270Z,62.40
2022-09-15T16:16:32.438Z,63.50
2022-09-15T16:19:01.381Z,63.40
2022-09-15T16:21:39.836Z,63.70
2022-09-15T16:24:12.147Z,63.70
2022-09-15T16:26:40.484Z,64.20
2022-09-15T16:29:08.461Z,64.50
2022-09-15T16:31:37.588Z,64.10
2022-09-15T16:34:06.502Z,64.50
2022-09-15T16:36:34.990Z,64.20
2022-09-15T16:39:03.234Z,64.20
2022-09-15T16:41:33.854Z,64.50
2022-09-15T16:44:04.421Z,65.00
2022-09-15T16:46:33.436Z,64.80
2022-09-15T16:49:01.394Z,65.70
2022-09-15T16:51:31.574Z,65.90
2022-09-15T16:53:59.924Z,66.30
2022-09-15T16:56:31.619Z,65.90
2022-09-15T16:59:00.627Z,66.40
2022-09-15T17:01:28.885Z,66.50
2022-09-15T17:03:56.887Z,66.10
2022-09-15T17:06:24.941Z,66.30
2022-09-15T17:08:52.991Z,66.70
2022-09-15T17:11:24.124Z,67.30
2022-09-15T17:13:52.091Z,66.90
2022-09-15T17:16:20.466Z,66.80
2022-09-15T17:18:48.693Z,66.90
2022-09-15T17:21:18.892Z,67.00
2022-09-15T17:23:48.429Z,67.20
2022-09-15T17:26:20.487Z,67.30
2022-09-15T17:28:50.784Z,67.90
2022-09-15T17:31:26.171Z,67.60
2022-09-15T17:33:54.430Z,67.40
2022-09-15T17:36:22.386Z,67.60
2022-09-15T17:38:50.525Z,67.70
2022-09-15T17:41:20.142Z,67.60
2022-09-15T17:43:48.517Z,67.80
2022-09-15T17:46:16.504Z,68.00
2022-09-15T17:48:44.637Z,68.20
2022-09-15T17:51:17.553Z,68.20
2022-09-15T17:53:47.233Z,68.60
2022-09-15T17:56:15.304Z,68.50
2022-09-15T17:58:43.511Z,68.60
2022-09-15T18:01:15.617Z,68.90
2022-09-15T18:03:45.162Z,68.50
2022-09-15T18:06:13.331Z,69.20
2022-09-15T18:08:44.641Z,69.30
2022-09-15T18:11:14.192Z,69.90
2022-09-15T18:13:42.321Z,69.70
2022-09-15T18:16:14.276Z,69.80
2022-09-15T18:18:42.359Z,69.70
2022-09-15T18:21:15.095Z,70.30
2022-09-15T18:23:45.413Z,70.00
2022-09-15T18:26:13.330Z,70.40
2022-09-15T18:28:41.641Z,70.40
2022-09-15T18:31:12.947Z,71.10
2022-09-15T18:33:40.996Z,71.10
2022-09-15T18:36:09.560Z,71.40
2022-09-15T18:38:37.572Z,71.20
2022-09-15T18:41:09.339Z,71.40
2022-09-15T18:43:40.734Z,71.90
2022-09-15T18:46:08.752Z,72.20
2022-09-15T18:48:37.453Z,72.10
2022-09-15T18:51:10.817Z,72.40
2022-09-15T18:53:40.027Z,72.40
2022-09-15T18:56:15.046Z,72.70
2022-09-15T18:58:43.347Z,72.50
2022-09-15T19:01:11.752Z,72.90
2022-09-15T19:03:44.004Z,73.20
2022-09-15T19:06:12.423Z,73.40
2022-09-15T19:08:41.016Z,73.60
2022-09-15T19:11:09.733Z,73.80
2022-09-15T19:13:38.661Z,74.00
2022-09-15T19:16:07.263Z,74.30
2022-09-15T19:18:37.812Z,74.40
2022-09-15T19:21:07.202Z,74.40
2022-09-15T19:23:37.693Z,74.10
2022-09-15T19:26:06.979Z,74.60
2022-09-15T19:28:35.236Z,74.70
2022-09-15T19:31:03.226Z,74.60
2022-09-15T19:33:31.379Z,74.90
2022-09-15T19:36:26.780Z,75.20
2022-09-15T19:38:54.800Z,75.40
2022-09-15T19:41:22.788Z,75.30
2022-09-15T19:43:53.178Z,75.00
2022-09-15T19:46:24.368Z,75.30
2022-09-15T19:48:53.191Z,75.60
2022-09-15T19:51:21.661Z,75.70
2022-09-15T19:53:50.129Z,75.90
2022-09-15T19:56:20.126Z,75.80
2022-09-15T19:58:48.563Z,76.10
2022-09-15T20:01:16.687Z,76.40
2022-09-15T20:03:46.890Z,76.50
2022-09-15T20:06:18.183Z,76.50
2022-09-15T20:08:47.638Z,76.80
2022-09-15T20:11:15.900Z,76.90
2022-09-15T20:13:44.329Z,77.00
2022-09-15T20:16:17.929Z,77.40
2022-09-15T20:18:48.230Z,77.50
2022-09-15T20:21:27.120Z,77.50
2022-09-15T20:24:08.247Z,77.90
2022-09-15T20:26:36.995Z,77.70
2022-09-15T20:29:05.793Z,78.10
2022-09-15T20:31:36.380Z,77.50
2022-09-15T20:34:04.771Z,77.80
2022-09-15T20:36:34.474Z,78.10
2022-09-15T20:39:05.756Z,77.80
2022-09-15T20:41:34.770Z,77.40
2022-09-15T20:44:02.804Z,78.60
2022-09-15T20:46:31.630Z,78.40
2022-09-15T20:49:02.040Z,78.60
2022-09-15T20:51:34.035Z,78.90
2022-09-15T20:54:05.320Z,79.20
2022-09-15T20:56:35.388Z,79.20
2022-09-15T20:59:04.993Z,79.40
2022-09-15T21:01:36.403Z,79.70
2022-09-15T21:04:05.223Z,79.90
2022-09-15T21:06:33.685Z,79.90
2022-09-15T21:09:01.644Z,80.00
2022-09-15T21:11:30.369Z,80.20
2022-09-15T21:13:59.029Z,80.40
2022-09-15T21:16:28.338Z,80.30
2022-09-15T21:18:57.301Z,80.50
2022-09-15T21:21:26.597Z,81.00
2022-09-15T21:23:58.961Z,80.80
2022-09-15T21:26:28.022Z,81.00
2022-09-15T21:28:58.650Z,81.00
2022-09-15T21:31:27.680Z,81.60
2022-09-15T21:33:56.650Z,81.40
2022-09-15T21:36:29.898Z,81.80
2022-09-15T21:38:58.557Z,82.00
2022-09-15T21:41:27.871Z,82.50
2022-09-15T21:43:59.217Z,82.40
2022-09-15T21:46:30.663Z,82.60
2022-09-15T21:48:59.604Z,82.80
2022-09-15T21:51:31.249Z,82.60
2022-09-15T21:53:59.932Z,82.80
2022-09-15T21:56:28.757Z,83.30
2022-09-15T21:58:56.803Z,83.20
2022-09-15T22:01:26.256Z,83.50
2022-09-15T22:04:05.369Z,83.50
2022-09-15T22:06:34.890Z,83.90
2022-09-15T22:09:06.348Z,84.20
2022-09-15T22:11:34.883Z,84.30
2022-09-15T22:14:04.204Z,84.40
2022-09-15T22:16:32.350Z,84.40
2022-09-15T22:19:00.326Z,84.60
2022-09-15T22:21:29.831Z,84.50
2022-09-15T22:23:59.383Z,84.90
2022-09-15T22:26:28.879Z,85.00
2022-09-15T22:28:57.173Z,85.00
2022-09-15T22:31:25.925Z,85.40
2022-09-15T22:33:54.199Z,85.40
2022-09-15T22:36:28.637Z,85.50
2022-09-15T22:39:03.222Z,85.60
2022-09-15T22:41:32.742Z,85.80
2022-09-15T22:44:00.611Z,86.00
2022-09-15T22:46:28.625Z,86.10
2022-09-15T22:48:56.521Z,86.20
2022-09-15T22:51:24.504Z,86.50
2022-09-15T22:53:57.196Z,86.70
2022-09-15T22:56:26.711Z,87.10
2022-09-15T22:58:55.712Z,87.00
2022-09-15T23:01:28.260Z,87.20
2022-09-15T23:03:57.502Z,87.30
2022-09-15T23:06:26.691Z,87.60
2022-09-15T23:08:55.829Z,87.60
2022-09-15T23:11:24.674Z,87.70
2022-09-15T23:13:53.653Z,88.00
2022-09-15T23:16:24.411Z,88.10
2022-09-15T23:18:53.050Z,88.10
2022-09-15T23:21:21.469Z,88.70
2022-09-15T23:23:49.623Z,88.60
2022-09-15T23:26:18.841Z,88.90
2022-09-15T23:28:49.955Z,89.00
2022-09-15T23:31:20.210Z,89.20
2022-09-15T23:33:49.145Z,88.80
2022-09-15T23:36:19.897Z,89.20
2022-09-15T23:38:48.510Z,89.70
2022-09-15T23:41:17.237Z,89.80
2022-09-15T23:43:45.591Z,89.80
2022-09-15T23:46:13.839Z,90.00
2022-09-15T23:48:42.121Z,90.10
2022-09-15T23:51:12.479Z,90.10
2022-09-15T23:53:44.286Z,90.10
2022-09-15T23:56:15.799Z,90.40
2022-09-15T23:58:44.001Z,90.40
